Terminal Aerodrome Forecast
Issued by NWS Cleveland, OH

Home | Current Version | Previous Version | Graphics & Text | Print | Product List | Glossary On
Versions: 1 2 3 4 5 6 7 8 9 10 11 12 13 14 15 16 17 18 19
000
FTUS41 KCLE 261700
TAFYNG
TAF
KYNG 261724Z 2618/2718 23008KT P6SM BKN040
     FM262100 22007KT P6SM VCTS BKN045CB
     FM270600 23003KT 4SM BR BKN030
     FM271400 22008KT P6SM VCTS OVC030CB=

USA.gov is the U.S. government's official web portal to all federal, state and local government web resources and services.